sensor_id;sensor_type;location;lat;lon;timestamp;P1;durP1;ratioP1;P2;durP2;ratioP2
73661;SDS011;61956;52.540;13.382;2022-08-27T00:01:43;5.43;;;1.50;;
73661;SDS011;61956;52.540;13.382;2022-08-27T00:04:12;3.95;;;1.30;;
73661;SDS011;61956;52.540;13.382;2022-08-27T00:06:47;4.55;;;1.58;;
73661;SDS011;61956;52.540;13.382;2022-08-27T00:09:16;7.82;;;2.15;;
73661;SDS011;61956;52.540;13.382;2022-08-27T00:11:46;7.20;;;2.45;;
73661;SDS011;61956;52.540;13.382;2022-08-27T00:14:17;4.60;;;1.70;;
73661;SDS011;61956;52.540;13.382;2022-08-27T00:16:46;3.95;;;1.58;;
73661;SDS011;61956;52.540;13.382;2022-08-27T00:19:16;5.60;;;2.00;;
73661;SDS011;61956;52.540;13.382;2022-08-27T00:21:49;5.20;;;2.08;;
73661;SDS011;61956;52.540;13.382;2022-08-27T00:24:20;3.13;;;1.25;;
73661;SDS011;61956;52.540;13.382;2022-08-27T00:26:49;4.97;;;1.80;;
73661;SDS011;61956;52.540;13.382;2022-08-27T00:29:19;4.50;;;1.23;;
73661;SDS011;61956;52.540;13.382;2022-08-27T00:31:49;6.25;;;1.90;;
73661;SDS011;61956;52.540;13.382;2022-08-27T00:34:18;4.50;;;1.80;;
73661;SDS011;61956;52.540;13.382;2022-08-27T00:36:50;5.82;;;2.17;;
73661;SDS011;61956;52.540;13.382;2022-08-27T00:39:20;3.30;;;0.97;;
73661;SDS011;61956;52.540;13.382;2022-08-27T00:41:49;5.53;;;2.13;;
73661;SDS011;61956;52.540;13.382;2022-08-27T00:44:18;6.20;;;2.20;;
73661;SDS011;61956;52.540;13.382;2022-08-27T00:46:48;6.43;;;2.33;;
73661;SDS011;61956;52.540;13.382;2022-08-27T00:49:22;8.90;;;3.65;;
73661;SDS011;61956;52.540;13.382;2022-08-27T00:52:00;7.23;;;3.33;;
73661;SDS011;61956;52.540;13.382;2022-08-27T00:54:34;6.55;;;2.53;;
73661;SDS011;61956;52.540;13.382;2022-08-27T00:57:03;4.72;;;1.98;;
73661;SDS011;61956;52.540;13.382;2022-08-27T00:59:33;4.88;;;1.77;;
73661;SDS011;61956;52.540;13.382;2022-08-27T01:02:03;6.13;;;2.30;;
73661;SDS011;61956;52.540;13.382;2022-08-27T01:04:46;4.37;;;1.37;;
73661;SDS011;61956;52.540;13.382;2022-08-27T01:07:24;7.43;;;2.90;;
73661;SDS011;61956;52.540;13.382;2022-08-27T01:09:57;6.80;;;2.78;;
73661;SDS011;61956;52.540;13.382;2022-08-27T01:12:30;8.50;;;3.05;;
73661;SDS011;61956;52.540;13.382;2022-08-27T01:15:03;8.48;;;3.90;;
73661;SDS011;61956;52.540;13.382;2022-08-27T01:17:38;6.07;;;2.33;;
73661;SDS011;61956;52.540;13.382;2022-08-27T01:20:11;8.10;;;3.60;;
73661;SDS011;61956;52.540;13.382;2022-08-27T01:22:52;6.47;;;2.60;;
73661;SDS011;61956;52.540;13.382;2022-08-27T01:25:34;8.00;;;3.25;;
73661;SDS011;61956;52.540;13.382;2022-08-27T01:28:04;4.78;;;1.90;;
73661;SDS011;61956;52.540;13.382;2022-08-27T01:30:34;3.87;;;1.57;;
73661;SDS011;61956;52.540;13.382;2022-08-27T01:33:07;8.10;;;3.25;;
73661;SDS011;61956;52.540;13.382;2022-08-27T01:35:39;5.40;;;2.10;;
73661;SDS011;61956;52.540;13.382;2022-08-27T01:38:09;7.40;;;3.47;;
73661;SDS011;61956;52.540;13.382;2022-08-27T01:40:42;6.22;;;2.78;;
73661;SDS011;61956;52.540;13.382;2022-08-27T01:43:12;6.80;;;2.07;;
73661;SDS011;61956;52.540;13.382;2022-08-27T01:45:43;5.40;;;1.88;;
73661;SDS011;61956;52.540;13.382;2022-08-27T01:48:16;6.22;;;2.08;;
73661;SDS011;61956;52.540;13.382;2022-08-27T01:50:48;7.50;;;3.05;;
73661;SDS011;61956;52.540;13.382;2022-08-27T01:53:19;5.22;;;1.85;;
73661;SDS011;61956;52.540;13.382;2022-08-27T01:55:55;7.43;;;2.53;;
73661;SDS011;61956;52.540;13.382;2022-08-27T01:58:27;6.38;;;2.40;;
73661;SDS011;61956;52.540;13.382;2022-08-27T02:00:59;6.88;;;2.85;;
73661;SDS011;61956;52.540;13.382;2022-08-27T02:03:34;6.70;;;2.15;;
73661;SDS011;61956;52.540;13.382;2022-08-27T02:06:05;13.07;;;4.28;;
73661;SDS011;61956;52.540;13.382;2022-08-27T02:08:38;8.73;;;3.07;;
73661;SDS011;61956;52.540;13.382;2022-08-27T02:11:11;7.70;;;2.50;;
73661;SDS011;61956;52.540;13.382;2022-08-27T02:13:40;13.02;;;4.45;;
73661;SDS011;61956;52.540;13.382;2022-08-27T02:16:09;9.95;;;3.70;;
73661;SDS011;61956;52.540;13.382;2022-08-27T02:18:38;9.15;;;2.60;;
73661;SDS011;61956;52.540;13.382;2022-08-27T02:21:08;12.00;;;3.67;;
73661;SDS011;61956;52.540;13.382;2022-08-27T02:23:38;9.13;;;3.90;;
73661;SDS011;61956;52.540;13.382;2022-08-27T02:26:12;11.45;;;5.10;;
73661;SDS011;61956;52.540;13.382;2022-08-27T02:28:41;8.38;;;3.88;;
73661;SDS011;61956;52.540;13.382;2022-08-27T02:31:10;15.38;;;4.25;;
73661;SDS011;61956;52.540;13.382;2022-08-27T02:33:42;9.90;;;3.47;;
73661;SDS011;61956;52.540;13.382;2022-08-27T02:36:11;8.90;;;2.55;;
73661;SDS011;61956;52.540;13.382;2022-08-27T02:38:40;9.38;;;2.53;;
73661;SDS011;61956;52.540;13.382;2022-08-27T02:41:12;5.78;;;1.63;;
73661;SDS011;61956;52.540;13.382;2022-08-27T02:43:41;7.65;;;2.22;;
73661;SDS011;61956;52.540;13.382;2022-08-27T02:46:11;7.80;;;2.90;;
73661;SDS011;61956;52.540;13.382;2022-08-27T02:48:41;5.72;;;2.17;;
73661;SDS011;61956;52.540;13.382;2022-08-27T02:51:10;10.32;;;3.40;;
73661;SDS011;61956;52.540;13.382;2022-08-27T02:53:39;8.15;;;3.20;;
73661;SDS011;61956;52.540;13.382;2022-08-27T02:56:08;5.55;;;2.35;;
73661;SDS011;61956;52.540;13.382;2022-08-27T02:58:40;9.27;;;3.23;;
73661;SDS011;61956;52.540;13.382;2022-08-27T03:01:10;7.00;;;2.47;;
73661;SDS011;61956;52.540;13.382;2022-08-27T03:03:41;12.02;;;4.75;;
73661;SDS011;61956;52.540;13.382;2022-08-27T03:06:10;6.53;;;2.90;;
73661;SDS011;61956;52.540;13.382;2022-08-27T03:08:39;5.70;;;2.35;;
73661;SDS011;61956;52.540;13.382;2022-08-27T03:11:08;8.83;;;2.43;;
73661;SDS011;61956;52.540;13.382;2022-08-27T03:13:40;8.98;;;3.13;;
73661;SDS011;61956;52.540;13.382;2022-08-27T03:16:09;9.77;;;3.35;;
73661;SDS011;61956;52.540;13.382;2022-08-27T03:18:38;9.45;;;3.70;;
73661;SDS011;61956;52.540;13.382;2022-08-27T03:21:05;7.90;;;3.58;;
73661;SDS011;61956;52.540;13.382;2022-08-27T03:23:34;5.67;;;2.37;;
73661;SDS011;61956;52.540;13.382;2022-08-27T03:26:08;8.90;;;3.80;;
73661;SDS011;61956;52.540;13.382;2022-08-27T03:28:42;8.15;;;3.60;;
73661;SDS011;61956;52.540;13.382;2022-08-27T03:31:13;14.23;;;5.22;;
73661;SDS011;61956;52.540;13.382;2022-08-27T03:33:51;13.40;;;5.82;;
73661;SDS011;61956;52.540;13.382;2022-08-27T03:36:22;10.40;;;4.43;;
73661;SDS011;61956;52.540;13.382;2022-08-27T03:38:51;10.48;;;3.85;;
73661;SDS011;61956;52.540;13.382;2022-08-27T03:41:20;17.17;;;5.72;;
73661;SDS011;61956;52.540;13.382;2022-08-27T03:43:53;7.45;;;3.50;;
73661;SDS011;61956;52.540;13.382;2022-08-27T03:46:23;13.10;;;5.60;;
73661;SDS011;61956;52.540;13.382;2022-08-27T03:48:55;9.77;;;4.17;;
73661;SDS011;61956;52.540;13.382;2022-08-27T03:51:24;11.60;;;4.55;;
73661;SDS011;61956;52.540;13.382;2022-08-27T03:53:53;14.63;;;6.05;;
73661;SDS011;61956;52.540;13.382;2022-08-27T03:56:22;14.18;;;4.80;;
73661;SDS011;61956;52.540;13.382;2022-08-27T03:58:54;11.10;;;4.43;;
73661;SDS011;61956;52.540;13.382;2022-08-27T04:01:23;12.90;;;4.37;;
73661;SDS011;61956;52.540;13.382;2022-08-27T04:03:53;14.02;;;5.47;;
73661;SDS011;61956;52.540;13.382;2022-08-27T04:06:22;15.40;;;5.75;;
73661;SDS011;61956;52.540;13.382;2022-08-27T04:08:52;24.90;;;7.15;;
73661;SDS011;61956;52.540;13.382;2022-08-27T04:11:21;10.88;;;5.07;;
73661;SDS011;61956;52.540;13.382;2022-08-27T04:13:50;17.00;;;5.33;;
73661;SDS011;61956;52.540;13.382;2022-08-27T04:16:22;11.35;;;4.47;;
73661;SDS011;61956;52.540;13.382;2022-08-27T04:18:53;9.68;;;4.47;;
73661;SDS011;61956;52.540;13.382;2022-08-27T04:21:22;7.32;;;2.83;;
73661;SDS011;61956;52.540;13.382;2022-08-27T04:23:51;12.10;;;5.13;;
73661;SDS011;61956;52.540;13.382;2022-08-27T04:26:26;5.90;;;2.50;;
73661;SDS011;61956;52.540;13.382;2022-08-27T04:28:58;8.70;;;3.85;;
73661;SDS011;61956;52.540;13.382;2022-08-27T04:31:27;9.65;;;3.75;;
73661;SDS011;61956;52.540;13.382;2022-08-27T04:33:56;9.50;;;3.50;;
73661;SDS011;61956;52.540;13.382;2022-08-27T04:36:26;8.57;;;2.72;;
73661;SDS011;61956;52.540;13.382;2022-08-27T04:38:55;15.23;;;4.93;;
73661;SDS011;61956;52.540;13.382;2022-08-27T04:41:25;8.80;;;3.33;;
73661;SDS011;61956;52.540;13.382;2022-08-27T04:44:01;11.50;;;3.50;;
73661;SDS011;61956;52.540;13.382;2022-08-27T04:46:35;13.80;;;5.05;;
73661;SDS011;61956;52.540;13.382;2022-08-27T04:49:08;11.20;;;4.72;;
73661;SDS011;61956;52.540;13.382;2022-08-27T04:51:42;7.70;;;3.40;;
73661;SDS011;61956;52.540;13.382;2022-08-27T04:54:11;9.80;;;3.05;;
73661;SDS011;61956;52.540;13.382;2022-08-27T04:56:40;11.27;;;4.32;;
73661;SDS011;61956;52.540;13.382;2022-08-27T04:59:13;8.90;;;3.22;;
73661;SDS011;61956;52.540;13.382;2022-08-27T05:01:42;12.02;;;4.95;;
73661;SDS011;61956;52.540;13.382;2022-08-27T05:04:13;7.90;;;3.10;;
73661;SDS011;61956;52.540;13.382;2022-08-27T05:06:44;12.15;;;4.18;;
73661;SDS011;61956;52.540;13.382;2022-08-27T05:09:15;16.25;;;6.88;;
73661;SDS011;61956;52.540;13.382;2022-08-27T05:11:46;16.98;;;4.03;;
73661;SDS011;61956;52.540;13.382;2022-08-27T05:14:19;7.43;;;2.15;;
73661;SDS011;61956;52.540;13.382;2022-08-27T05:16:49;10.63;;;3.70;;
73661;SDS011;61956;52.540;13.382;2022-08-27T05:19:18;14.80;;;4.75;;
73661;SDS011;61956;52.540;13.382;2022-08-27T05:21:48;11.70;;;3.40;;
73661;SDS011;61956;52.540;13.382;2022-08-27T05:24:20;12.32;;;4.43;;
73661;SDS011;61956;52.540;13.382;2022-08-27T05:26:50;12.32;;;4.03;;
73661;SDS011;61956;52.540;13.382;2022-08-27T05:29:22;9.80;;;2.90;;
73661;SDS011;61956;52.540;13.382;2022-08-27T05:31:51;13.40;;;4.50;;
73661;SDS011;61956;52.540;13.382;2022-08-27T05:34:20;6.18;;;2.03;;
73661;SDS011;61956;52.540;13.382;2022-08-27T05:36:49;8.65;;;2.70;;
73661;SDS011;61956;52.540;13.382;2022-08-27T05:39:19;8.70;;;2.70;;
73661;SDS011;61956;52.540;13.382;2022-08-27T05:41:49;11.00;;;3.83;;
73661;SDS011;61956;52.540;13.382;2022-08-27T05:44:22;8.35;;;3.20;;
73661;SDS011;61956;52.540;13.382;2022-08-27T05:46:51;11.63;;;5.00;;
73661;SDS011;61956;52.540;13.382;2022-08-27T05:49:20;7.32;;;2.67;;
73661;SDS011;61956;52.540;13.382;2022-08-27T05:51:49;9.73;;;3.47;;
73661;SDS011;61956;52.540;13.382;2022-08-27T05:54:18;11.57;;;4.90;;
73661;SDS011;61956;52.540;13.382;2022-08-27T05:56:48;11.88;;;4.45;;
73661;SDS011;61956;52.540;13.382;2022-08-27T05:59:17;11.68;;;5.13;;
73661;SDS011;61956;52.540;13.382;2022-08-27T06:02:02;7.38;;;2.83;;
73661;SDS011;61956;52.540;13.382;2022-08-27T06:04:33;9.35;;;3.53;;
73661;SDS011;61956;52.540;13.382;2022-08-27T06:07:03;9.07;;;4.00;;
73661;SDS011;61956;52.540;13.382;2022-08-27T06:09:34;10.57;;;3.17;;
73661;SDS011;61956;52.540;13.382;2022-08-27T06:12:04;10.73;;;3.38;;
73661;SDS011;61956;52.540;13.382;2022-08-27T06:14:35;11.32;;;4.00;;
73661;SDS011;61956;52.540;13.382;2022-08-27T06:17:07;5.05;;;2.33;;
73661;SDS011;61956;52.540;13.382;2022-08-27T06:19:36;10.33;;;3.37;;
73661;SDS011;61956;52.540;13.382;2022-08-27T06:22:06;11.52;;;3.88;;
73661;SDS011;61956;52.540;13.382;2022-08-27T06:24:37;5.45;;;1.85;;
73661;SDS011;61956;52.540;13.382;2022-08-27T06:27:08;10.05;;;3.50;;
73661;SDS011;61956;52.540;13.382;2022-08-27T06:29:41;9.68;;;3.72;;
73661;SDS011;61956;52.540;13.382;2022-08-27T06:32:14;8.70;;;3.30;;
73661;SDS011;61956;52.540;13.382;2022-08-27T06:34:44;8.48;;;3.45;;
73661;SDS011;61956;52.540;13.382;2022-08-27T06:37:13;6.20;;;2.75;;
73661;SDS011;61956;52.540;13.382;2022-08-27T06:39:42;8.57;;;2.53;;
73661;SDS011;61956;52.540;13.382;2022-08-27T06:42:11;8.10;;;2.92;;
73661;SDS011;61956;52.540;13.382;2022-08-27T06:44:41;9.20;;;2.80;;
73661;SDS011;61956;52.540;13.382;2022-08-27T06:47:14;6.60;;;2.70;;
73661;SDS011;61956;52.540;13.382;2022-08-27T06:49:44;7.85;;;3.05;;
73661;SDS011;61956;52.540;13.382;2022-08-27T06:52:13;7.35;;;3.10;;
73661;SDS011;61956;52.540;13.382;2022-08-27T06:54:42;6.38;;;2.10;;
73661;SDS011;61956;52.540;13.382;2022-08-27T06:57:12;7.93;;;2.40;;
73661;SDS011;61956;52.540;13.382;2022-08-27T06:59:41;7.47;;;2.28;;
73661;SDS011;61956;52.540;13.382;2022-08-27T07:02:10;5.97;;;2.15;;
73661;SDS011;61956;52.540;13.382;2022-08-27T07:04:42;6.28;;;2.25;;
73661;SDS011;61956;52.540;13.382;2022-08-27T07:07:11;5.75;;;2.22;;
73661;SDS011;61956;52.540;13.382;2022-08-27T07:09:41;7.40;;;2.90;;
73661;SDS011;61956;52.540;13.382;2022-08-27T07:12:10;9.27;;;2.97;;
73661;SDS011;61956;52.540;13.382;2022-08-27T07:14:39;6.03;;;2.05;;
73661;SDS011;61956;52.540;13.382;2022-08-27T07:17:08;8.30;;;2.83;;
73661;SDS011;61956;52.540;13.382;2022-08-27T07:19:37;5.82;;;1.88;;
73661;SDS011;61956;52.540;13.382;2022-08-27T07:22:09;5.30;;;1.90;;
73661;SDS011;61956;52.540;13.382;2022-08-27T07:24:39;7.50;;;2.72;;
73661;SDS011;61956;52.540;13.382;2022-08-27T07:27:08;4.43;;;1.42;;
73661;SDS011;61956;52.540;13.382;2022-08-27T07:29:38;5.97;;;2.03;;
73661;SDS011;61956;52.540;13.382;2022-08-27T07:32:07;6.30;;;2.40;;
73661;SDS011;61956;52.540;13.382;2022-08-27T07:34:37;6.70;;;2.73;;
73661;SDS011;61956;52.540;13.382;2022-08-27T07:37:08;5.90;;;2.38;;
73661;SDS011;61956;52.540;13.382;2022-08-27T07:39:40;7.18;;;2.80;;
73661;SDS011;61956;52.540;13.382;2022-08-27T07:42:09;6.47;;;2.42;;
73661;SDS011;61956;52.540;13.382;2022-08-27T07:44:50;6.78;;;2.88;;
73661;SDS011;61956;52.540;13.382;2022-08-27T07:47:20;7.37;;;2.73;;
73661;SDS011;61956;52.540;13.382;2022-08-27T07:49:49;8.13;;;3.00;;
73661;SDS011;61956;52.540;13.382;2022-08-27T07:52:20;5.68;;;1.75;;
73661;SDS011;61956;52.540;13.382;2022-08-27T07:54:50;6.50;;;2.47;;
73661;SDS011;61956;52.540;13.382;2022-08-27T07:57:19;9.25;;;2.80;;
73661;SDS011;61956;52.540;13.382;2022-08-27T07:59:48;7.53;;;2.67;;
73661;SDS011;61956;52.540;13.382;2022-08-27T08:02:17;6.28;;;2.47;;
73661;SDS011;61956;52.540;13.382;2022-08-27T08:04:47;6.75;;;1.90;;
73661;SDS011;61956;52.540;13.382;2022-08-27T08:07:16;5.15;;;2.10;;
73661;SDS011;61956;52.540;13.382;2022-08-27T08:09:50;5.70;;;2.15;;
73661;SDS011;61956;52.540;13.382;2022-08-27T08:12:19;5.37;;;1.80;;
73661;SDS011;61956;52.540;13.382;2022-08-27T08:14:48;6.70;;;2.03;;
73661;SDS011;61956;52.540;13.382;2022-08-27T08:17:22;5.72;;;1.75;;
73661;SDS011;61956;52.540;13.382;2022-08-27T08:19:51;8.43;;;2.70;;
73661;SDS011;61956;52.540;13.382;2022-08-27T08:22:23;5.18;;;2.03;;
73661;SDS011;61956;52.540;13.382;2022-08-27T08:24:54;8.20;;;2.77;;
73661;SDS011;61956;52.540;13.382;2022-08-27T08:27:24;5.57;;;2.50;;
73661;SDS011;61956;52.540;13.382;2022-08-27T08:29:54;8.30;;;2.40;;
73661;SDS011;61956;52.540;13.382;2022-08-27T08:32:23;4.93;;;1.75;;
73661;SDS011;61956;52.540;13.382;2022-08-27T08:34:52;8.05;;;3.03;;
73661;SDS011;61956;52.540;13.382;2022-08-27T08:37:24;5.53;;;2.37;;
73661;SDS011;61956;52.540;13.382;2022-08-27T08:39:59;6.30;;;2.50;;
73661;SDS011;61956;52.540;13.382;2022-08-27T08:42:29;10.23;;;3.20;;
73661;SDS011;61956;52.540;13.382;2022-08-27T08:45:09;6.85;;;3.03;;
73661;SDS011;61956;52.540;13.382;2022-08-27T08:47:45;6.97;;;3.10;;
73661;SDS011;61956;52.540;13.382;2022-08-27T08:50:22;8.50;;;3.03;;
73661;SDS011;61956;52.540;13.382;2022-08-27T08:53:01;8.20;;;2.50;;
73661;SDS011;61956;52.540;13.382;2022-08-27T08:55:42;6.25;;;2.50;;
73661;SDS011;61956;52.540;13.382;2022-08-27T08:58:20;6.78;;;3.42;;
73661;SDS011;61956;52.540;13.382;2022-08-27T09:01:02;6.68;;;2.63;;
73661;SDS011;61956;52.540;13.382;2022-08-27T09:03:37;6.53;;;2.90;;
73661;SDS011;61956;52.540;13.382;2022-08-27T09:06:10;5.45;;;2.10;;
73661;SDS011;61956;52.540;13.382;2022-08-27T09:08:48;7.32;;;3.25;;
73661;SDS011;61956;52.540;13.382;2022-08-27T09:11:23;7.95;;;3.50;;
73661;SDS011;61956;52.540;13.382;2022-08-27T09:14:02;5.93;;;2.28;;
73661;SDS011;61956;52.540;13.382;2022-08-27T09:16:46;7.93;;;2.73;;
73661;SDS011;61956;52.540;13.382;2022-08-27T09:19:15;5.13;;;2.33;;
73661;SDS011;61956;52.540;13.382;2022-08-27T09:21:47;5.40;;;2.00;;
73661;SDS011;61956;52.540;13.382;2022-08-27T09:24:35;9.43;;;2.67;;
73661;SDS011;61956;52.540;13.382;2022-08-27T09:27:20;5.05;;;1.58;;
73661;SDS011;61956;52.540;13.382;2022-08-27T09:29:54;6.70;;;2.27;;
73661;SDS011;61956;52.540;13.382;2022-08-27T09:32:25;7.30;;;2.45;;
73661;SDS011;61956;52.540;13.382;2022-08-27T09:35:01;6.85;;;2.42;;
73661;SDS011;61956;52.540;13.382;2022-08-27T09:37:38;6.82;;;2.10;;
73661;SDS011;61956;52.540;13.382;2022-08-27T09:40:14;5.82;;;2.28;;
73661;SDS011;61956;52.540;13.382;2022-08-27T09:43:06;7.97;;;2.60;;
73661;SDS011;61956;52.540;13.382;2022-08-27T09:45:47;5.05;;;1.80;;
73661;SDS011;61956;52.540;13.382;2022-08-27T09:48:20;7.53;;;3.25;;
73661;SDS011;61956;52.540;13.382;2022-08-27T09:50:55;6.25;;;2.40;;
73661;SDS011;61956;52.540;13.382;2022-08-27T09:53:28;7.40;;;2.60;;
73661;SDS011;61956;52.540;13.382;2022-08-27T09:56:06;5.07;;;1.67;;
73661;SDS011;61956;52.540;13.382;2022-08-27T09:58:48;5.47;;;2.10;;
73661;SDS011;61956;52.540;13.382;2022-08-27T10:01:23;6.07;;;2.10;;
73661;SDS011;61956;52.540;13.382;2022-08-27T10:04:01;8.10;;;2.80;;
73661;SDS011;61956;52.540;13.382;2022-08-27T10:06:34;6.25;;;2.20;;
73661;SDS011;61956;52.540;13.382;2022-08-27T10:09:07;5.57;;;2.60;;
73661;SDS011;61956;52.540;13.382;2022-08-27T10:11:43;6.55;;;2.60;;
73661;SDS011;61956;52.540;13.382;2022-08-27T10:14:27;4.80;;;1.67;;
73661;SDS011;61956;52.540;13.382;2022-08-27T10:17:08;5.78;;;2.20;;
73661;SDS011;61956;52.540;13.382;2022-08-27T10:19:54;5.15;;;1.90;;
73661;SDS011;61956;52.540;13.382;2022-08-27T10:22:39;6.17;;;2.30;;
73661;SDS011;61956;52.540;13.382;2022-08-27T10:25:25;4.90;;;1.73;;
73661;SDS011;61956;52.540;13.382;2022-08-27T10:28:09;5.97;;;2.35;;
73661;SDS011;61956;52.540;13.382;2022-08-27T10:34:02;6.03;;;2.58;;
73661;SDS011;61956;52.540;13.382;2022-08-27T10:36:53;6.10;;;2.60;;
73661;SDS011;61956;52.540;13.382;2022-08-27T10:39:42;5.38;;;1.45;;
73661;SDS011;61956;52.540;13.382;2022-08-27T10:42:34;6.00;;;2.20;;
73661;SDS011;61956;52.540;13.382;2022-08-27T10:45:15;7.22;;;1.90;;
73661;SDS011;61956;52.540;13.382;2022-08-27T10:48:04;7.32;;;2.40;;
73661;SDS011;61956;52.540;13.382;2022-08-27T10:50:44;4.77;;;1.83;;
73661;SDS011;61956;52.540;13.382;2022-08-27T10:53:22;4.78;;;2.00;;
73661;SDS011;61956;52.540;13.382;2022-08-27T10:56:07;5.47;;;1.35;;
73661;SDS011;61956;52.540;13.382;2022-08-27T10:58:49;6.63;;;2.45;;
73661;SDS011;61956;52.540;13.382;2022-08-27T11:01:33;4.40;;;1.25;;
73661;SDS011;61956;52.540;13.382;2022-08-27T11:04:19;5.70;;;1.60;;
73661;SDS011;61956;52.540;13.382;2022-08-27T11:06:56;4.88;;;1.60;;
73661;SDS011;61956;52.540;13.382;2022-08-27T11:09:33;4.07;;;1.33;;
73661;SDS011;61956;52.540;13.382;2022-08-27T11:12:10;4.72;;;1.50;;
73661;SDS011;61956;52.540;13.382;2022-08-27T11:14:49;4.40;;;1.40;;
73661;SDS011;61956;52.540;13.382;2022-08-27T11:17:25;7.83;;;1.87;;
73661;SDS011;61956;52.540;13.382;2022-08-27T11:20:07;3.00;;;0.93;;
73661;SDS011;61956;52.540;13.382;2022-08-27T11:22:44;4.80;;;1.30;;
73661;SDS011;61956;52.540;13.382;2022-08-27T11:25:25;6.57;;;1.50;;
73661;SDS011;61956;52.540;13.382;2022-08-27T11:28:11;4.35;;;1.25;;
73661;SDS011;61956;52.540;13.382;2022-08-27T11:30:44;3.00;;;1.00;;
73661;SDS011;61956;52.540;13.382;2022-08-27T11:33:26;4.50;;;1.17;;
73661;SDS011;61956;52.540;13.382;2022-08-27T11:36:12;5.35;;;1.67;;
73661;SDS011;61956;52.540;13.382;2022-08-27T11:39:20;3.50;;;1.25;;
73661;SDS011;61956;52.540;13.382;2022-08-27T11:42:08;3.80;;;1.27;;
73661;SDS011;61956;52.540;13.382;2022-08-27T11:44:51;4.83;;;1.50;;
73661;SDS011;61956;52.540;13.382;2022-08-27T11:47:30;5.50;;;2.03;;
73661;SDS011;61956;52.540;13.382;2022-08-27T11:49:59;6.13;;;1.92;;
73661;SDS011;61956;52.540;13.382;2022-08-27T11:52:37;4.32;;;1.52;;
73661;SDS011;61956;52.540;13.382;2022-08-27T11:55:10;4.70;;;1.95;;
73661;SDS011;61956;52.540;13.382;2022-08-27T11:58:01;6.77;;;2.57;;
73661;SDS011;61956;52.540;13.382;2022-08-27T12:00:38;3.80;;;1.38;;
73661;SDS011;61956;52.540;13.382;2022-08-27T12:03:20;5.53;;;1.70;;
73661;SDS011;61956;52.540;13.382;2022-08-27T12:06:08;5.60;;;2.05;;
73661;SDS011;61956;52.540;13.382;2022-08-27T12:09:04;4.82;;;1.80;;
73661;SDS011;61956;52.540;13.382;2022-08-27T12:11:43;5.00;;;2.00;;
73661;SDS011;61956;52.540;13.382;2022-08-27T12:14:33;5.00;;;1.80;;
73661;SDS011;61956;52.540;13.382;2022-08-27T12:17:18;5.13;;;1.98;;
73661;SDS011;61956;52.540;13.382;2022-08-27T12:20:02;3.97;;;1.45;;
73661;SDS011;61956;52.540;13.382;2022-08-27T12:22:49;8.55;;;1.95;;
73661;SDS011;61956;52.540;13.382;2022-08-27T12:25:56;4.90;;;1.30;;
73661;SDS011;61956;52.540;13.382;2022-08-27T12:28:41;4.53;;;1.63;;
73661;SDS011;61956;52.540;13.382;2022-08-27T12:31:10;5.18;;;2.05;;
73661;SDS011;61956;52.540;13.382;2022-08-27T12:33:49;5.50;;;1.88;;
73661;SDS011;61956;52.540;13.382;2022-08-27T12:36:21;4.65;;;1.65;;
73661;SDS011;61956;52.540;13.382;2022-08-27T12:38:57;5.00;;;1.67;;
73661;SDS011;61956;52.540;13.382;2022-08-27T12:41:32;3.88;;;1.38;;
73661;SDS011;61956;52.540;13.382;2022-08-27T12:44:05;6.60;;;2.50;;
73661;SDS011;61956;52.540;13.382;2022-08-27T12:46:37;6.75;;;2.28;;
73661;SDS011;61956;52.540;13.382;2022-08-27T12:49:15;4.85;;;1.95;;
73661;SDS011;61956;52.540;13.382;2022-08-27T12:51:47;4.70;;;1.50;;
73661;SDS011;61956;52.540;13.382;2022-08-27T12:54:19;6.53;;;1.90;;
73661;SDS011;61956;52.540;13.382;2022-08-27T12:57:13;6.35;;;2.30;;
73661;SDS011;61956;52.540;13.382;2022-08-27T12:59:55;5.22;;;1.48;;
73661;SDS011;61956;52.540;13.382;2022-08-27T13:02:44;4.97;;;1.20;;
73661;SDS011;61956;52.540;13.382;2022-08-27T13:05:36;3.80;;;1.13;;
73661;SDS011;61956;52.540;13.382;2022-08-27T13:08:16;2.75;;;0.85;;
73661;SDS011;61956;52.540;13.382;2022-08-27T13:10:47;5.18;;;2.13;;
73661;SDS011;61956;52.540;13.382;2022-08-27T13:13:22;5.18;;;2.08;;
73661;SDS011;61956;52.540;13.382;2022-08-27T13:15:53;4.78;;;1.52;;
73661;SDS011;61956;52.540;13.382;2022-08-27T13:18:25;5.90;;;2.37;;
73661;SDS011;61956;52.540;13.382;2022-08-27T13:21:00;5.55;;;1.70;;
73661;SDS011;61956;52.540;13.382;2022-08-27T13:23:36;4.93;;;2.00;;
73661;SDS011;61956;52.540;13.382;2022-08-27T13:26:12;4.30;;;1.35;;
73661;SDS011;61956;52.540;13.382;2022-08-27T13:28:43;5.18;;;1.88;;
73661;SDS011;61956;52.540;13.382;2022-08-27T13:31:14;4.80;;;2.20;;
73661;SDS011;61956;52.540;13.382;2022-08-27T13:33:53;4.68;;;1.23;;
73661;SDS011;61956;52.540;13.382;2022-08-27T13:36:25;5.07;;;1.70;;
73661;SDS011;61956;52.540;13.382;2022-08-27T13:38:59;4.85;;;1.40;;
73661;SDS011;61956;52.540;13.382;2022-08-27T13:41:32;4.80;;;1.38;;
73661;SDS011;61956;52.540;13.382;2022-08-27T13:44:08;4.23;;;1.50;;
73661;SDS011;61956;52.540;13.382;2022-08-27T13:46:47;3.22;;;1.17;;
73661;SDS011;61956;52.540;13.382;2022-08-27T13:49:20;4.28;;;1.30;;
73661;SDS011;61956;52.540;13.382;2022-08-27T13:51:57;7.95;;;1.88;;
73661;SDS011;61956;52.540;13.382;2022-08-27T13:54:32;5.25;;;1.95;;
73661;SDS011;61956;52.540;13.382;2022-08-27T13:57:01;5.30;;;1.97;;
73661;SDS011;61956;52.540;13.382;2022-08-27T13:59:40;5.88;;;2.10;;
73661;SDS011;61956;52.540;13.382;2022-08-27T14:02:20;6.25;;;1.60;;
73661;SDS011;61956;52.540;13.382;2022-08-27T14:05:04;6.00;;;2.40;;
73661;SDS011;61956;52.540;13.382;2022-08-27T14:07:40;6.55;;;2.03;;
73661;SDS011;61956;52.540;13.382;2022-08-27T14:10:29;5.07;;;2.30;;
73661;SDS011;61956;52.540;13.382;2022-08-27T14:13:03;5.20;;;1.80;;
73661;SDS011;61956;52.540;13.382;2022-08-27T14:15:40;3.65;;;1.45;;
73661;SDS011;61956;52.540;13.382;2022-08-27T14:18:19;5.03;;;1.67;;
73661;SDS011;61956;52.540;13.382;2022-08-27T14:20:53;5.60;;;1.98;;
73661;SDS011;61956;52.540;13.382;2022-08-27T14:23:23;3.83;;;1.30;;
73661;SDS011;61956;52.540;13.382;2022-08-27T14:25:58;5.70;;;2.05;;
73661;SDS011;61956;52.540;13.382;2022-08-27T14:28:28;6.13;;;2.17;;
73661;SDS011;61956;52.540;13.382;2022-08-27T14:31:04;4.07;;;1.52;;
73661;SDS011;61956;52.540;13.382;2022-08-27T14:33:33;5.53;;;2.08;;
73661;SDS011;61956;52.540;13.382;2022-08-27T14:36:05;5.10;;;1.60;;
73661;SDS011;61956;52.540;13.382;2022-08-27T14:38:41;2.65;;;0.73;;
73661;SDS011;61956;52.540;13.382;2022-08-27T14:41:21;4.53;;;1.58;;
73661;SDS011;61956;52.540;13.382;2022-08-27T14:43:53;7.43;;;1.77;;
73661;SDS011;61956;52.540;13.382;2022-08-27T14:46:28;6.78;;;2.10;;
73661;SDS011;61956;52.540;13.382;2022-08-27T14:49:03;5.17;;;1.80;;
73661;SDS011;61956;52.540;13.382;2022-08-27T14:51:40;5.40;;;1.88;;
73661;SDS011;61956;52.540;13.382;2022-08-27T14:54:15;5.57;;;1.80;;
73661;SDS011;61956;52.540;13.382;2022-08-27T14:56:44;5.05;;;1.80;;
73661;SDS011;61956;52.540;13.382;2022-08-27T14:59:13;4.35;;;1.50;;
73661;SDS011;61956;52.540;13.382;2022-08-27T15:01:45;4.90;;;1.80;;
73661;SDS011;61956;52.540;13.382;2022-08-27T15:04:14;5.68;;;1.77;;
73661;SDS011;61956;52.540;13.382;2022-08-27T15:06:44;5.55;;;1.67;;
73661;SDS011;61956;52.540;13.382;2022-08-27T15:09:13;5.75;;;1.80;;
73661;SDS011;61956;52.540;13.382;2022-08-27T15:11:42;4.78;;;1.85;;
73661;SDS011;61956;52.540;13.382;2022-08-27T15:14:15;5.80;;;2.17;;
73661;SDS011;61956;52.540;13.382;2022-08-27T15:16:53;4.20;;;1.42;;